sensor_id;sensor_type;location;lat;lon;timestamp;P1;durP1;ratioP1;P2;durP2;ratioP2
30743;SDS011;17486;46.738;7.622;2022-08-19T00:00:23;8.73;;;7.90;;
30743;SDS011;17486;46.738;7.622;2022-08-19T00:02:48;8.38;;;7.57;;
30743;SDS011;17486;46.738;7.622;2022-08-19T00:05:14;7.43;;;6.72;;
30743;SDS011;17486;46.738;7.622;2022-08-19T00:07:40;7.38;;;6.68;;
30743;SDS011;17486;46.738;7.622;2022-08-19T00:10:08;7.32;;;6.72;;
30743;SDS011;17486;46.738;7.622;2022-08-19T00:12:34;7.78;;;6.90;;
30743;SDS011;17486;46.738;7.622;2022-08-19T00:15:02;6.78;;;6.22;;
30743;SDS011;17486;46.738;7.622;2022-08-19T00:17:36;7.30;;;6.53;;
30743;SDS011;17486;46.738;7.622;2022-08-19T00:20:03;6.78;;;6.18;;
30743;SDS011;17486;46.738;7.622;2022-08-19T00:22:29;6.88;;;6.32;;
30743;SDS011;17486;46.738;7.622;2022-08-19T00:24:54;7.50;;;6.90;;
30743;SDS011;17486;46.738;7.622;2022-08-19T00:27:19;8.25;;;7.45;;
30743;SDS011;17486;46.738;7.622;2022-08-19T00:29:45;9.23;;;8.43;;
30743;SDS011;17486;46.738;7.622;2022-08-19T00:32:10;9.60;;;8.70;;
30743;SDS011;17486;46.738;7.622;2022-08-19T00:34:37;9.93;;;8.75;;
30743;SDS011;17486;46.738;7.622;2022-08-19T00:37:02;10.80;;;9.02;;
30743;SDS011;17486;46.738;7.622;2022-08-19T00:39:28;11.75;;;8.23;;
30743;SDS011;17486;46.738;7.622;2022-08-19T00:41:53;9.07;;;8.18;;
30743;SDS011;17486;46.738;7.622;2022-08-19T00:44:21;7.55;;;6.95;;
30743;SDS011;17486;46.738;7.622;2022-08-19T00:46:50;7.47;;;6.88;;
30743;SDS011;17486;46.738;7.622;2022-08-19T00:49:19;8.25;;;7.55;;
30743;SDS011;17486;46.738;7.622;2022-08-19T00:51:49;7.13;;;6.53;;
30743;SDS011;17486;46.738;7.622;2022-08-19T00:54:18;7.90;;;6.95;;
30743;SDS011;17486;46.738;7.622;2022-08-19T00:56:46;7.95;;;7.25;;
30743;SDS011;17486;46.738;7.622;2022-08-19T00:59:13;8.15;;;7.45;;
30743;SDS011;17486;46.738;7.622;2022-08-19T01:01:40;7.93;;;7.15;;
30743;SDS011;17486;46.738;7.622;2022-08-19T01:04:08;8.57;;;7.68;;
30743;SDS011;17486;46.738;7.622;2022-08-19T01:06:35;8.18;;;7.35;;
30743;SDS011;17486;46.738;7.622;2022-08-19T01:09:02;8.00;;;6.85;;
30743;SDS011;17486;46.738;7.622;2022-08-19T01:11:30;8.90;;;7.88;;
30743;SDS011;17486;46.738;7.622;2022-08-19T01:13:58;8.35;;;7.53;;
30743;SDS011;17486;46.738;7.622;2022-08-19T01:16:24;10.23;;;8.10;;
30743;SDS011;17486;46.738;7.622;2022-08-19T01:18:52;8.95;;;7.63;;
30743;SDS011;17486;46.738;7.622;2022-08-19T01:21:19;8.35;;;7.65;;
30743;SDS011;17486;46.738;7.622;2022-08-19T01:23:49;8.27;;;7.47;;
30743;SDS011;17486;46.738;7.622;2022-08-19T01:26:18;8.95;;;8.07;;
30743;SDS011;17486;46.738;7.622;2022-08-19T01:28:45;8.82;;;7.97;;
30743;SDS011;17486;46.738;7.622;2022-08-19T01:31:14;8.45;;;7.65;;
30743;SDS011;17486;46.738;7.622;2022-08-19T01:33:43;9.43;;;8.52;;
30743;SDS011;17486;46.738;7.622;2022-08-19T01:36:13;8.70;;;7.95;;
30743;SDS011;17486;46.738;7.622;2022-08-19T01:41:08;8.95;;;7.75;;
30743;SDS011;17486;46.738;7.622;2022-08-19T01:43:34;9.25;;;8.25;;
30743;SDS011;17486;46.738;7.622;2022-08-19T01:46:00;9.45;;;8.05;;
30743;SDS011;17486;46.738;7.622;2022-08-19T01:48:26;8.82;;;8.05;;
30743;SDS011;17486;46.738;7.622;2022-08-19T01:50:54;10.35;;;8.65;;
30743;SDS011;17486;46.738;7.622;2022-08-19T01:53:20;9.10;;;8.30;;
30743;SDS011;17486;46.738;7.622;2022-08-19T01:55:46;9.38;;;8.30;;
30743;SDS011;17486;46.738;7.622;2022-08-19T01:58:14;9.85;;;8.85;;
30743;SDS011;17486;46.738;7.622;2022-08-19T02:00:43;10.27;;;9.20;;
30743;SDS011;17486;46.738;7.622;2022-08-19T02:03:10;10.25;;;9.25;;
30743;SDS011;17486;46.738;7.622;2022-08-19T02:05:37;10.48;;;9.27;;
30743;SDS011;17486;46.738;7.622;2022-08-19T02:08:03;9.50;;;8.60;;
30743;SDS011;17486;46.738;7.622;2022-08-19T02:10:29;9.20;;;8.30;;
30743;SDS011;17486;46.738;7.622;2022-08-19T02:12:55;9.30;;;8.48;;
30743;SDS011;17486;46.738;7.622;2022-08-19T02:15:20;9.23;;;8.18;;
30743;SDS011;17486;46.738;7.622;2022-08-19T02:17:46;10.10;;;9.20;;
30743;SDS011;17486;46.738;7.622;2022-08-19T02:20:12;10.82;;;9.55;;
30743;SDS011;17486;46.738;7.622;2022-08-19T02:22:39;9.40;;;8.50;;
30743;SDS011;17486;46.738;7.622;2022-08-19T02:25:07;9.18;;;8.38;;
30743;SDS011;17486;46.738;7.622;2022-08-19T02:27:34;9.02;;;8.20;;
30743;SDS011;17486;46.738;7.622;2022-08-19T02:29:59;9.25;;;8.35;;
30743;SDS011;17486;46.738;7.622;2022-08-19T02:32:26;10.57;;;9.50;;
30743;SDS011;17486;46.738;7.622;2022-08-19T02:34:51;9.68;;;8.77;;
30743;SDS011;17486;46.738;7.622;2022-08-19T02:37:16;9.07;;;7.68;;
30743;SDS011;17486;46.738;7.622;2022-08-19T02:40:00;8.18;;;7.45;;
30743;SDS011;17486;46.738;7.622;2022-08-19T02:42:26;8.40;;;7.70;;
30743;SDS011;17486;46.738;7.622;2022-08-19T02:44:51;8.40;;;7.45;;
30743;SDS011;17486;46.738;7.622;2022-08-19T02:47:17;7.95;;;7.25;;
30743;SDS011;17486;46.738;7.622;2022-08-19T02:49:44;8.57;;;7.78;;
30743;SDS011;17486;46.738;7.622;2022-08-19T02:52:10;8.45;;;7.75;;
30743;SDS011;17486;46.738;7.622;2022-08-19T02:54:36;8.65;;;7.85;;
30743;SDS011;17486;46.738;7.622;2022-08-19T02:57:03;7.45;;;6.85;;
30743;SDS011;17486;46.738;7.622;2022-08-19T02:59:30;8.00;;;7.25;;
30743;SDS011;17486;46.738;7.622;2022-08-19T03:01:55;7.75;;;7.05;;
30743;SDS011;17486;46.738;7.622;2022-08-19T03:04:21;7.38;;;6.78;;
30743;SDS011;17486;46.738;7.622;2022-08-19T03:06:48;7.50;;;6.90;;
30743;SDS011;17486;46.738;7.622;2022-08-19T03:09:13;7.22;;;6.60;;
30743;SDS011;17486;46.738;7.622;2022-08-19T03:11:40;8.82;;;7.97;;
30743;SDS011;17486;46.738;7.622;2022-08-19T03:14:06;8.15;;;7.43;;
30743;SDS011;17486;46.738;7.622;2022-08-19T03:16:34;7.55;;;6.85;;
30743;SDS011;17486;46.738;7.622;2022-08-19T03:19:04;8.75;;;7.05;;
30743;SDS011;17486;46.738;7.622;2022-08-19T03:21:30;7.97;;;7.32;;
30743;SDS011;17486;46.738;7.622;2022-08-19T03:23:58;8.15;;;7.13;;
30743;SDS011;17486;46.738;7.622;2022-08-19T03:28:55;7.43;;;6.72;;
30743;SDS011;17486;46.738;7.622;2022-08-19T03:31:21;8.10;;;7.40;;
30743;SDS011;17486;46.738;7.622;2022-08-19T03:33:48;8.60;;;7.05;;
30743;SDS011;17486;46.738;7.622;2022-08-19T03:36:19;7.95;;;7.10;;
30743;SDS011;17486;46.738;7.622;2022-08-19T03:38:51;7.20;;;6.50;;
30743;SDS011;17486;46.738;7.622;2022-08-19T03:41:20;7.35;;;6.47;;
30743;SDS011;17486;46.738;7.622;2022-08-19T03:43:47;5.05;;;4.50;;
30743;SDS011;17486;46.738;7.622;2022-08-19T03:46:17;3.55;;;3.25;;
30743;SDS011;17486;46.738;7.622;2022-08-19T03:48:48;3.17;;;2.42;;
30743;SDS011;17486;46.738;7.622;2022-08-19T03:51:20;2.47;;;2.27;;
30743;SDS011;17486;46.738;7.622;2022-08-19T03:53:50;2.47;;;2.25;;
30743;SDS011;17486;46.738;7.622;2022-08-19T03:56:16;2.67;;;1.77;;
30743;SDS011;17486;46.738;7.622;2022-08-19T03:58:43;3.13;;;2.08;;
30743;SDS011;17486;46.738;7.622;2022-08-19T04:01:09;2.22;;;1.67;;
30743;SDS011;17486;46.738;7.622;2022-08-19T04:03:38;2.33;;;2.13;;
30743;SDS011;17486;46.738;7.622;2022-08-19T04:06:14;2.30;;;1.80;;
30743;SDS011;17486;46.738;7.622;2022-08-19T04:08:42;2.03;;;1.77;;
30743;SDS011;17486;46.738;7.622;2022-08-19T04:11:10;2.17;;;1.98;;
30743;SDS011;17486;46.738;7.622;2022-08-19T04:13:37;1.90;;;1.70;;
30743;SDS011;17486;46.738;7.622;2022-08-19T04:16:03;1.73;;;1.30;;
30743;SDS011;17486;46.738;7.622;2022-08-19T04:18:29;1.83;;;1.70;;
30743;SDS011;17486;46.738;7.622;2022-08-19T04:20:56;2.15;;;1.85;;
30743;SDS011;17486;46.738;7.622;2022-08-19T04:23:21;1.80;;;1.52;;
30743;SDS011;17486;46.738;7.622;2022-08-19T04:25:47;3.13;;;1.70;;
30743;SDS011;17486;46.738;7.622;2022-08-19T04:28:13;1.33;;;1.23;;
30743;SDS011;17486;46.738;7.622;2022-08-19T04:30:42;1.75;;;1.48;;
30743;SDS011;17486;46.738;7.622;2022-08-19T04:33:10;1.33;;;1.23;;
30743;SDS011;17486;46.738;7.622;2022-08-19T04:35:37;1.55;;;1.45;;
30743;SDS011;17486;46.738;7.622;2022-08-19T04:38:05;1.60;;;1.50;;
30743;SDS011;17486;46.738;7.622;2022-08-19T04:40:31;1.83;;;1.73;;
30743;SDS011;17486;46.738;7.622;2022-08-19T04:43:15;1.85;;;1.75;;
30743;SDS011;17486;46.738;7.622;2022-08-19T04:45:44;3.25;;;2.03;;
30743;SDS011;17486;46.738;7.622;2022-08-19T04:48:10;2.92;;;1.70;;
30743;SDS011;17486;46.738;7.622;2022-08-19T04:50:39;1.95;;;1.83;;
30743;SDS011;17486;46.738;7.622;2022-08-19T04:53:06;3.20;;;2.30;;
30743;SDS011;17486;46.738;7.622;2022-08-19T04:55:32;2.97;;;2.70;;
30743;SDS011;17486;46.738;7.622;2022-08-19T04:57:58;3.28;;;2.97;;
30743;SDS011;17486;46.738;7.622;2022-08-19T05:00:24;3.22;;;2.92;;
30743;SDS011;17486;46.738;7.622;2022-08-19T05:02:50;4.15;;;3.08;;
30743;SDS011;17486;46.738;7.622;2022-08-19T05:05:15;4.13;;;3.28;;
30743;SDS011;17486;46.738;7.622;2022-08-19T05:07:41;4.95;;;3.05;;
30743;SDS011;17486;46.738;7.622;2022-08-19T05:10:07;3.65;;;3.35;;
30743;SDS011;17486;46.738;7.622;2022-08-19T05:12:33;3.25;;;3.00;;
30743;SDS011;17486;46.738;7.622;2022-08-19T05:14:58;3.28;;;2.78;;
30743;SDS011;17486;46.738;7.622;2022-08-19T05:17:25;3.45;;;3.15;;
30743;SDS011;17486;46.738;7.622;2022-08-19T05:19:51;3.92;;;3.03;;
30743;SDS011;17486;46.738;7.622;2022-08-19T05:22:35;3.25;;;2.95;;
30743;SDS011;17486;46.738;7.622;2022-08-19T05:25:03;2.90;;;2.70;;
30743;SDS011;17486;46.738;7.622;2022-08-19T05:27:31;2.90;;;2.70;;
30743;SDS011;17486;46.738;7.622;2022-08-19T05:29:57;3.10;;;2.30;;
30743;SDS011;17486;46.738;7.622;2022-08-19T05:32:22;3.17;;;2.88;;
30743;SDS011;17486;46.738;7.622;2022-08-19T05:34:48;3.53;;;2.92;;
30743;SDS011;17486;46.738;7.622;2022-08-19T05:37:14;3.15;;;2.85;;
30743;SDS011;17486;46.738;7.622;2022-08-19T05:39:39;3.78;;;3.05;;
30743;SDS011;17486;46.738;7.622;2022-08-19T05:42:09;3.45;;;2.72;;
30743;SDS011;17486;46.738;7.622;2022-08-19T05:44:37;2.75;;;2.33;;
30743;SDS011;17486;46.738;7.622;2022-08-19T05:47:05;2.90;;;2.70;;
30743;SDS011;17486;46.738;7.622;2022-08-19T05:49:33;3.80;;;2.67;;
30743;SDS011;17486;46.738;7.622;2022-08-19T05:52:01;3.67;;;2.75;;
30743;SDS011;17486;46.738;7.622;2022-08-19T05:54:29;3.22;;;2.92;;
30743;SDS011;17486;46.738;7.622;2022-08-19T05:56:55;2.90;;;2.70;;
30743;SDS011;17486;46.738;7.622;2022-08-19T05:59:20;3.05;;;2.72;;
30743;SDS011;17486;46.738;7.622;2022-08-19T06:01:47;3.40;;;2.85;;
30743;SDS011;17486;46.738;7.622;2022-08-19T06:04:17;3.25;;;2.83;;
30743;SDS011;17486;46.738;7.622;2022-08-19T06:06:48;3.17;;;2.88;;
30743;SDS011;17486;46.738;7.622;2022-08-19T06:09:17;2.75;;;2.55;;
30743;SDS011;17486;46.738;7.622;2022-08-19T06:11:49;3.38;;;2.83;;
30743;SDS011;17486;46.738;7.622;2022-08-19T06:14:22;3.60;;;2.80;;
30743;SDS011;17486;46.738;7.622;2022-08-19T06:16:49;4.45;;;3.08;;
30743;SDS011;17486;46.738;7.622;2022-08-19T06:19:17;3.03;;;2.83;;
30743;SDS011;17486;46.738;7.622;2022-08-19T06:21:46;3.75;;;2.92;;
30743;SDS011;17486;46.738;7.622;2022-08-19T06:24:14;3.78;;;3.20;;
30743;SDS011;17486;46.738;7.622;2022-08-19T06:26:42;4.28;;;3.15;;
30743;SDS011;17486;46.738;7.622;2022-08-19T06:29:10;4.63;;;2.78;;
30743;SDS011;17486;46.738;7.622;2022-08-19T06:31:40;3.13;;;2.83;;
30743;SDS011;17486;46.738;7.622;2022-08-19T06:34:08;3.83;;;3.38;;
30743;SDS011;17486;46.738;7.622;2022-08-19T06:36:39;4.80;;;3.30;;
30743;SDS011;17486;46.738;7.622;2022-08-19T06:39:11;5.57;;;3.67;;
30743;SDS011;17486;46.738;7.622;2022-08-19T06:41:39;4.03;;;3.10;;
30743;SDS011;17486;46.738;7.622;2022-08-19T06:44:06;4.20;;;3.75;;
30743;SDS011;17486;46.738;7.622;2022-08-19T06:46:32;4.03;;;3.50;;
30743;SDS011;17486;46.738;7.622;2022-08-19T06:48:58;5.93;;;3.90;;
30743;SDS011;17486;46.738;7.622;2022-08-19T06:51:24;4.95;;;3.70;;
30743;SDS011;17486;46.738;7.622;2022-08-19T06:53:51;5.30;;;4.20;;
30743;SDS011;17486;46.738;7.622;2022-08-19T06:56:23;5.28;;;4.53;;
30743;SDS011;17486;46.738;7.622;2022-08-19T06:58:58;5.70;;;4.78;;
30743;SDS011;17486;46.738;7.622;2022-08-19T07:01:25;6.53;;;5.22;;
30743;SDS011;17486;46.738;7.622;2022-08-19T07:03:51;6.35;;;5.70;;
30743;SDS011;17486;46.738;7.622;2022-08-19T07:06:17;6.90;;;5.50;;
30743;SDS011;17486;46.738;7.622;2022-08-19T07:08:45;6.95;;;6.13;;
30743;SDS011;17486;46.738;7.622;2022-08-19T07:11:11;7.28;;;6.60;;
30743;SDS011;17486;46.738;7.622;2022-08-19T07:13:39;7.32;;;6.18;;
30743;SDS011;17486;46.738;7.622;2022-08-19T07:16:06;5.80;;;5.30;;
30743;SDS011;17486;46.738;7.622;2022-08-19T07:18:33;6.78;;;6.07;;
30743;SDS011;17486;46.738;7.622;2022-08-19T07:21:03;6.55;;;5.95;;
30743;SDS011;17486;46.738;7.622;2022-08-19T07:23:49;6.93;;;6.32;;
30743;SDS011;17486;46.738;7.622;2022-08-19T07:26:19;7.43;;;6.47;;
30743;SDS011;17486;46.738;7.622;2022-08-19T07:28:47;6.40;;;5.90;;
30743;SDS011;17486;46.738;7.622;2022-08-19T07:31:15;6.93;;;6.22;;
30743;SDS011;17486;46.738;7.622;2022-08-19T07:33:43;6.53;;;5.85;;
30743;SDS011;17486;46.738;7.622;2022-08-19T07:36:09;7.10;;;6.40;;
30743;SDS011;17486;46.738;7.622;2022-08-19T07:38:42;6.22;;;5.68;;
30743;SDS011;17486;46.738;7.622;2022-08-19T07:41:10;7.40;;;6.80;;
30743;SDS011;17486;46.738;7.622;2022-08-19T07:43:37;6.68;;;6.05;;
30743;SDS011;17486;46.738;7.622;2022-08-19T07:46:03;8.38;;;7.30;;
30743;SDS011;17486;46.738;7.622;2022-08-19T07:48:29;8.10;;;7.40;;
30743;SDS011;17486;46.738;7.622;2022-08-19T07:50:55;9.07;;;7.65;;
30743;SDS011;17486;46.738;7.622;2022-08-19T07:53:23;9.02;;;8.13;;
30743;SDS011;17486;46.738;7.622;2022-08-19T07:55:49;8.25;;;7.40;;
30743;SDS011;17486;46.738;7.622;2022-08-19T07:58:17;8.30;;;7.60;;
30743;SDS011;17486;46.738;7.622;2022-08-19T08:00:45;8.77;;;7.97;;
30743;SDS011;17486;46.738;7.622;2022-08-19T08:03:15;8.70;;;7.80;;
30743;SDS011;17486;46.738;7.622;2022-08-19T08:05:42;8.38;;;7.60;;
30743;SDS011;17486;46.738;7.622;2022-08-19T08:08:26;9.13;;;8.32;;
30743;SDS011;17486;46.738;7.622;2022-08-19T08:11:10;10.13;;;9.13;;
30743;SDS011;17486;46.738;7.622;2022-08-19T08:13:36;8.88;;;8.05;;
30743;SDS011;17486;46.738;7.622;2022-08-19T08:16:01;8.75;;;7.95;;
30743;SDS011;17486;46.738;7.622;2022-08-19T08:18:27;9.70;;;8.77;;
30743;SDS011;17486;46.738;7.622;2022-08-19T08:20:53;10.77;;;8.82;;
30743;SDS011;17486;46.738;7.622;2022-08-19T08:23:19;8.98;;;8.15;;
30743;SDS011;17486;46.738;7.622;2022-08-19T08:25:49;9.32;;;8.43;;
30743;SDS011;17486;46.738;7.622;2022-08-19T08:28:16;9.73;;;8.55;;
30743;SDS011;17486;46.738;7.622;2022-08-19T08:30:42;8.93;;;8.10;;
30743;SDS011;17486;46.738;7.622;2022-08-19T08:33:10;10.40;;;9.40;;
30743;SDS011;17486;46.738;7.622;2022-08-19T08:35:36;9.25;;;8.35;;
30743;SDS011;17486;46.738;7.622;2022-08-19T08:38:02;9.40;;;8.30;;
30743;SDS011;17486;46.738;7.622;2022-08-19T08:43:08;9.63;;;8.55;;
30743;SDS011;17486;46.738;7.622;2022-08-19T08:45:42;9.65;;;8.75;;
30743;SDS011;17486;46.738;7.622;2022-08-19T08:48:23;10.43;;;9.43;;
30743;SDS011;17486;46.738;7.622;2022-08-19T08:50:56;10.30;;;9.07;;
30743;SDS011;17486;46.738;7.622;2022-08-19T08:53:23;9.57;;;8.63;;
30743;SDS011;17486;46.738;7.622;2022-08-19T08:55:50;9.15;;;8.25;;
30743;SDS011;17486;46.738;7.622;2022-08-19T08:58:17;9.80;;;8.90;;
30743;SDS011;17486;46.738;7.622;2022-08-19T09:00:51;9.43;;;8.52;;
30743;SDS011;17486;46.738;7.622;2022-08-19T09:03:18;9.40;;;8.40;;
30743;SDS011;17486;46.738;7.622;2022-08-19T09:11:00;8.32;;;7.53;;
30743;SDS011;17486;46.738;7.622;2022-08-19T09:13:33;7.78;;;7.07;;
30743;SDS011;17486;46.738;7.622;2022-08-19T09:16:21;7.40;;;6.80;;
30743;SDS011;17486;46.738;7.622;2022-08-19T09:18:53;7.43;;;6.80;;
30743;SDS011;17486;46.738;7.622;2022-08-19T09:21:23;8.48;;;7.57;;
30743;SDS011;17486;46.738;7.622;2022-08-19T09:23:50;8.18;;;7.47;;
30743;SDS011;17486;46.738;7.622;2022-08-19T09:26:17;7.95;;;7.25;;
30743;SDS011;17486;46.738;7.622;2022-08-19T09:28:45;7.97;;;7.28;;
30743;SDS011;17486;46.738;7.622;2022-08-19T09:31:22;8.30;;;7.55;;
30743;SDS011;17486;46.738;7.622;2022-08-19T09:33:49;7.40;;;6.68;;
30743;SDS011;17486;46.738;7.622;2022-08-19T09:36:16;8.00;;;7.22;;
30743;SDS011;17486;46.738;7.622;2022-08-19T09:38:44;7.88;;;7.18;;
30743;SDS011;17486;46.738;7.622;2022-08-19T09:41:14;8.25;;;7.50;;
30743;SDS011;17486;46.738;7.622;2022-08-19T09:43:44;8.30;;;7.60;;
30743;SDS011;17486;46.738;7.622;2022-08-19T09:46:11;8.07;;;7.28;;
30743;SDS011;17486;46.738;7.622;2022-08-19T09:48:37;8.23;;;7.47;;
30743;SDS011;17486;46.738;7.622;2022-08-19T09:51:13;8.68;;;7.82;;
30743;SDS011;17486;46.738;7.622;2022-08-19T09:53:40;8.52;;;7.72;;
30743;SDS011;17486;46.738;7.622;2022-08-19T09:56:07;8.05;;;7.35;;
30743;SDS011;17486;46.738;7.622;2022-08-19T09:58:33;8.50;;;7.70;;
30743;SDS011;17486;46.738;7.622;2022-08-19T10:01:00;8.57;;;7.70;;
30743;SDS011;17486;46.738;7.622;2022-08-19T10:03:27;8.43;;;7.65;;
30743;SDS011;17486;46.738;7.622;2022-08-19T10:05:54;7.75;;;7.05;;
30743;SDS011;17486;46.738;7.622;2022-08-19T10:08:33;7.05;;;6.40;;
30743;SDS011;17486;46.738;7.622;2022-08-19T10:11:01;7.50;;;6.70;;
30743;SDS011;17486;46.738;7.622;2022-08-19T10:13:29;6.93;;;6.30;;
30743;SDS011;17486;46.738;7.622;2022-08-19T10:16:01;7.40;;;6.70;;
30743;SDS011;17486;46.738;7.622;2022-08-19T10:18:32;7.40;;;6.70;;
30743;SDS011;17486;46.738;7.622;2022-08-19T10:21:33;6.90;;;6.30;;
30743;SDS011;17486;46.738;7.622;2022-08-19T10:23:54;7.57;;;6.88;;
30743;SDS011;17486;46.738;7.622;2022-08-19T10:26:24;7.68;;;6.97;;
30743;SDS011;17486;46.738;7.622;2022-08-19T10:28:51;7.55;;;6.93;;
30743;SDS011;17486;46.738;7.622;2022-08-19T10:31:19;7.75;;;7.05;;
30743;SDS011;17486;46.738;7.622;2022-08-19T10:33:49;8.13;;;7.32;;
30743;SDS011;17486;46.738;7.622;2022-08-19T10:36:21;7.90;;;7.20;;
30743;SDS011;17486;46.738;7.622;2022-08-19T10:38:49;7.72;;;7.05;;
30743;SDS011;17486;46.738;7.622;2022-08-19T10:41:17;7.40;;;6.80;;
30743;SDS011;17486;46.738;7.622;2022-08-19T10:43:50;7.35;;;6.75;;
30743;SDS011;17486;46.738;7.622;2022-08-19T10:46:18;7.35;;;6.60;;
30743;SDS011;17486;46.738;7.622;2022-08-19T10:48:43;6.90;;;6.30;;
30743;SDS011;17486;46.738;7.622;2022-08-19T10:51:10;6.28;;;5.78;;
30743;SDS011;17486;46.738;7.622;2022-08-19T10:53:55;6.80;;;6.30;;
30743;SDS011;17486;46.738;7.622;2022-08-19T10:56:23;6.55;;;5.95;;
30743;SDS011;17486;46.738;7.622;2022-08-19T10:59:08;6.70;;;6.10;;
30743;SDS011;17486;46.738;7.622;2022-08-19T11:01:34;7.47;;;6.78;;
30743;SDS011;17486;46.738;7.622;2022-08-19T11:04:03;6.63;;;6.03;;
30743;SDS011;17486;46.738;7.622;2022-08-19T11:06:30;6.65;;;6.05;;
30743;SDS011;17486;46.738;7.622;2022-08-19T11:08:57;6.55;;;6.05;;
30743;SDS011;17486;46.738;7.622;2022-08-19T11:11:22;6.43;;;5.82;;
30743;SDS011;17486;46.738;7.622;2022-08-19T11:13:48;5.45;;;5.03;;
30743;SDS011;17486;46.738;7.622;2022-08-19T11:16:16;4.35;;;3.95;;
30743;SDS011;17486;46.738;7.622;2022-08-19T11:18:47;3.78;;;3.47;;
30743;SDS011;17486;46.738;7.622;2022-08-19T11:23:42;4.63;;;4.22;;
30743;SDS011;17486;46.738;7.622;2022-08-19T11:26:08;4.40;;;4.00;;
30743;SDS011;17486;46.738;7.622;2022-08-19T11:28:34;4.30;;;3.90;;
30743;SDS011;17486;46.738;7.622;2022-08-19T11:31:00;4.43;;;4.13;;
30743;SDS011;17486;46.738;7.622;2022-08-19T11:33:28;4.07;;;3.67;;
30743;SDS011;17486;46.738;7.622;2022-08-19T11:35:54;3.80;;;3.50;;
30743;SDS011;17486;46.738;7.622;2022-08-19T11:38:22;3.83;;;3.53;;
30743;SDS011;17486;46.738;7.622;2022-08-19T11:40:55;3.60;;;3.40;;
30743;SDS011;17486;46.738;7.622;2022-08-19T11:43:24;3.25;;;2.95;;
30743;SDS011;17486;46.738;7.622;2022-08-19T11:45:51;3.45;;;3.15;;
30743;SDS011;17486;46.738;7.622;2022-08-19T11:48:17;2.90;;;2.70;;
30743;SDS011;17486;46.738;7.622;2022-08-19T11:50:50;2.58;;;2.38;;
30743;SDS011;17486;46.738;7.622;2022-08-19T11:53:21;3.00;;;2.80;;
30743;SDS011;17486;46.738;7.622;2022-08-19T11:55:47;2.80;;;2.60;;
30743;SDS011;17486;46.738;7.622;2022-08-19T11:58:13;2.83;;;2.63;;
30743;SDS011;17486;46.738;7.622;2022-08-19T12:00:40;3.40;;;3.10;;
30743;SDS011;17486;46.738;7.622;2022-08-19T12:03:07;6.05;;;3.40;;
30743;SDS011;17486;46.738;7.622;2022-08-19T12:05:33;7.75;;;3.72;;
30743;SDS011;17486;46.738;7.622;2022-08-19T12:08:00;6.03;;;3.75;;
30743;SDS011;17486;46.738;7.622;2022-08-19T12:10:26;3.47;;;3.17;;
30743;SDS011;17486;46.738;7.622;2022-08-19T12:12:51;4.30;;;3.15;;
30743;SDS011;17486;46.738;7.622;2022-08-19T12:15:17;3.70;;;3.40;;
30743;SDS011;17486;46.738;7.622;2022-08-19T12:17:42;3.83;;;3.20;;
30743;SDS011;17486;46.738;7.622;2022-08-19T12:20:09;3.63;;;3.33;;
30743;SDS011;17486;46.738;7.622;2022-08-19T12:22:36;3.25;;;3.05;;
30743;SDS011;17486;46.738;7.622;2022-08-19T12:25:03;3.20;;;2.90;;
30743;SDS011;17486;46.738;7.622;2022-08-19T12:27:30;2.90;;;2.70;;
30743;SDS011;17486;46.738;7.622;2022-08-19T12:29:56;3.10;;;2.85;;
30743;SDS011;17486;46.738;7.622;2022-08-19T12:32:22;3.38;;;3.17;;
30743;SDS011;17486;46.738;7.622;2022-08-19T12:34:49;3.53;;;3.22;;
30743;SDS011;17486;46.738;7.622;2022-08-19T12:37:15;3.50;;;3.28;;
30743;SDS011;17486;46.738;7.622;2022-08-19T12:39:41;3.47;;;3.20;;
30743;SDS011;17486;46.738;7.622;2022-08-19T12:42:08;3.13;;;2.90;;
30743;SDS011;17486;46.738;7.622;2022-08-19T12:44:38;2.90;;;2.70;;
30743;SDS011;17486;46.738;7.622;2022-08-19T12:47:05;3.38;;;3.08;;
30743;SDS011;17486;46.738;7.622;2022-08-19T12:49:31;2.90;;;2.70;;
30743;SDS011;17486;46.738;7.622;2022-08-19T12:52:02;2.85;;;2.65;;
30743;SDS011;17486;46.738;7.622;2022-08-19T12:54:28;2.50;;;2.30;;
30743;SDS011;17486;46.738;7.622;2022-08-19T12:56:55;2.25;;;2.05;;
30743;SDS011;17486;46.738;7.622;2022-08-19T12:59:21;2.28;;;2.10;;
30743;SDS011;17486;46.738;7.622;2022-08-19T13:01:47;2.70;;;2.50;;
30743;SDS011;17486;46.738;7.622;2022-08-19T13:04:12;2.33;;;2.13;;
30743;SDS011;17486;46.738;7.622;2022-08-19T13:06:37;1.90;;;1.80;;
30743;SDS011;17486;46.738;7.622;2022-08-19T13:09:03;1.73;;;1.63;;
30743;SDS011;17486;46.738;7.622;2022-08-19T13:11:29;1.60;;;1.50;;
30743;SDS011;17486;46.738;7.622;2022-08-19T13:13:57;1.95;;;1.50;;
30743;SDS011;17486;46.738;7.622;2022-08-19T13:16:23;1.85;;;1.65;;
30743;SDS011;17486;46.738;7.622;2022-08-19T13:18:49;2.95;;;1.63;;
30743;SDS011;17486;46.738;7.622;2022-08-19T13:21:19;1.95;;;1.50;;
30743;SDS011;17486;46.738;7.622;2022-08-19T13:23:46;2.90;;;1.70;;
30743;SDS011;17486;46.738;7.622;2022-08-19T13:26:12;1.50;;;1.40;;
30743;SDS011;17486;46.738;7.622;2022-08-19T13:28:38;1.35;;;1.25;;
30743;SDS011;17486;46.738;7.622;2022-08-19T13:31:27;1.60;;;1.50;;
30743;SDS011;17486;46.738;7.622;2022-08-19T13:34:13;1.60;;;1.50;;
30743;SDS011;17486;46.738;7.622;2022-08-19T13:36:39;1.58;;;1.48;;
30743;SDS011;17486;46.738;7.622;2022-08-19T13:39:06;1.50;;;1.40;;
30743;SDS011;17486;46.738;7.622;2022-08-19T13:41:36;1.75;;;1.65;;
30743;SDS011;17486;46.738;7.622;2022-08-19T13:44:02;1.60;;;1.50;;
30743;SDS011;17486;46.738;7.622;2022-08-19T13:46:29;1.70;;;1.60;;
30743;SDS011;17486;46.738;7.622;2022-08-19T13:48:55;2.03;;;1.70;;
30743;SDS011;17486;46.738;7.622;2022-08-19T13:51:21;2.25;;;1.60;;
30743;SDS011;17486;46.738;7.622;2022-08-19T13:53:47;1.73;;;1.63;;
30743;SDS011;17486;46.738;7.622;2022-08-19T13:56:15;1.70;;;1.60;;
30743;SDS011;17486;46.738;7.622;2022-08-19T13:58:42;1.90;;;1.80;;
30743;SDS011;17486;46.738;7.622;2022-08-19T14:01:09;2.20;;;2.00;;
30743;SDS011;17486;46.738;7.622;2022-08-19T14:03:35;2.05;;;1.90;;
30743;SDS011;17486;46.738;7.622;2022-08-19T14:06:02;1.90;;;1.80;;
30743;SDS011;17486;46.738;7.622;2022-08-19T14:08:27;1.80;;;1.70;;
30743;SDS011;17486;46.738;7.622;2022-08-19T14:10:54;1.90;;;1.80;;
30743;SDS011;17486;46.738;7.622;2022-08-19T14:13:21;2.33;;;2.00;;
30743;SDS011;17486;46.738;7.622;2022-08-19T14:15:50;1.90;;;1.80;;
30743;SDS011;17486;46.738;7.622;2022-08-19T14:18:16;2.00;;;1.90;;
30743;SDS011;17486;46.738;7.622;2022-08-19T14:20:43;1.60;;;1.50;;
30743;SDS011;17486;46.738;7.622;2022-08-19T14:23:09;2.08;;;1.98;;
30743;SDS011;17486;46.738;7.622;2022-08-19T14:25:35;1.92;;;1.83;;
30743;SDS011;17486;46.738;7.622;2022-08-19T14:28:00;2.17;;;2.08;;
30743;SDS011;17486;46.738;7.622;2022-08-19T14:30:30;2.10;;;1.90;;
30743;SDS011;17486;46.738;7.622;2022-08-19T14:32:57;2.60;;;2.40;;
30743;SDS011;17486;46.738;7.622;2022-08-19T14:35:25;2.50;;;2.33;;
30743;SDS011;17486;46.738;7.622;2022-08-19T14:37:52;3.15;;;2.42;;
30743;SDS011;17486;46.738;7.622;2022-08-19T14:40:23;2.88;;;2.30;;
30743;SDS011;17486;46.738;7.622;2022-08-19T14:42:57;2.58;;;2.38;;
30743;SDS011;17486;46.738;7.622;2022-08-19T14:45:30;2.45;;;2.25;;
30743;SDS011;17486;46.738;7.622;2022-08-19T14:48:00;2.65;;;2.45;;
30743;SDS011;17486;46.738;7.622;2022-08-19T14:50:26;2.67;;;2.47;;
30743;SDS011;17486;46.738;7.622;2022-08-19T14:52:57;3.13;;;2.90;;
30743;SDS011;17486;46.738;7.622;2022-08-19T14:55:25;3.05;;;2.50;;
30743;SDS011;17486;46.738;7.622;2022-08-19T14:57:50;2.65;;;2.45;;
30743;SDS011;17486;46.738;7.622;2022-08-19T15:00:16;2.92;;;2.70;;
30743;SDS011;17486;46.738;7.622;2022-08-19T15:02:41;2.92;;;2.72;;
30743;SDS011;17486;46.738;7.622;2022-08-19T15:05:09;3.33;;;3.03;;
30743;SDS011;17486;46.738;7.622;2022-08-19T15:07:35;3.10;;;2.90;;